sensor_id;sensor_type;location;lat;lon;timestamp;temperature;humidity
7004;DHT22;3542;48.812;9.146;2023-02-15T00:00:16;-0.80;99.90
7004;DHT22;3542;48.812;9.146;2023-02-15T00:02:41;-0.80;99.90
7004;DHT22;3542;48.812;9.146;2023-02-15T00:05:08;-0.90;99.90
7004;DHT22;3542;48.812;9.146;2023-02-15T00:07:33;-0.90;99.90
7004;DHT22;3542;48.812;9.146;2023-02-15T00:09:59;-0.90;99.90
7004;DHT22;3542;48.812;9.146;2023-02-15T00:12:24;-1.00;99.90
7004;DHT22;3542;48.812;9.146;2023-02-15T00:14:50;-1.00;99.90
7004;DHT22;3542;48.812;9.146;2023-02-15T00:17:15;-1.00;99.90
7004;DHT22;3542;48.812;9.146;2023-02-15T00:19:41;-1.00;99.90
7004;DHT22;3542;48.812;9.146;2023-02-15T00:22:06;-1.00;99.90
7004;DHT22;3542;48.812;9.146;2023-02-15T00:24:32;-1.00;99.90
7004;DHT22;3542;48.812;9.146;2023-02-15T00:26:58;-1.00;99.90
7004;DHT22;3542;48.812;9.146;2023-02-15T00:29:23;-1.00;99.90
7004;DHT22;3542;48.812;9.146;2023-02-15T00:31:49;-1.10;99.90
7004;DHT22;3542;48.812;9.146;2023-02-15T00:34:18;-1.10;99.90
7004;DHT22;3542;48.812;9.146;2023-02-15T00:36:45;-1.10;99.90
7004;DHT22;3542;48.812;9.146;2023-02-15T00:39:11;-1.10;99.90
7004;DHT22;3542;48.812;9.146;2023-02-15T00:41:37;-1.10;99.90
7004;DHT22;3542;48.812;9.146;2023-02-15T00:44:03;-1.20;99.90
7004;DHT22;3542;48.812;9.146;2023-02-15T00:46:29;-1.20;99.90
7004;DHT22;3542;48.812;9.146;2023-02-15T00:48:54;-1.10;99.90
7004;DHT22;3542;48.812;9.146;2023-02-15T00:51:20;-1.10;99.90
7004;DHT22;3542;48.812;9.146;2023-02-15T00:53:46;-1.10;99.90
7004;DHT22;3542;48.812;9.146;2023-02-15T00:56:11;-1.10;99.90
7004;DHT22;3542;48.812;9.146;2023-02-15T00:58:37;-1.20;99.90
7004;DHT22;3542;48.812;9.146;2023-02-15T01:01:09;-1.20;99.90
7004;DHT22;3542;48.812;9.146;2023-02-15T01:03:35;-1.20;99.90
7004;DHT22;3542;48.812;9.146;2023-02-15T01:06:01;-1.20;99.90
7004;DHT22;3542;48.812;9.146;2023-02-15T01:08:27;-1.20;99.90
7004;DHT22;3542;48.812;9.146;2023-02-15T01:10:53;-1.30;99.90
7004;DHT22;3542;48.812;9.146;2023-02-15T01:13:19;-1.30;99.90
7004;DHT22;3542;48.812;9.146;2023-02-15T01:15:44;-1.30;99.90
7004;DHT22;3542;48.812;9.146;2023-02-15T01:18:10;-1.30;99.90
7004;DHT22;3542;48.812;9.146;2023-02-15T01:20:38;-1.30;99.90
7004;DHT22;3542;48.812;9.146;2023-02-15T01:23:05;-1.30;99.90
7004;DHT22;3542;48.812;9.146;2023-02-15T01:25:33;-1.30;99.90
7004;DHT22;3542;48.812;9.146;2023-02-15T01:27:59;-1.30;99.90
7004;DHT22;3542;48.812;9.146;2023-02-15T01:30:25;-1.40;99.90
7004;DHT22;3542;48.812;9.146;2023-02-15T01:32:51;-1.40;99.90
7004;DHT22;3542;48.812;9.146;2023-02-15T01:35:16;-1.40;99.90
7004;DHT22;3542;48.812;9.146;2023-02-15T01:37:42;-1.40;99.90
7004;DHT22;3542;48.812;9.146;2023-02-15T01:40:12;-1.50;99.90
7004;DHT22;3542;48.812;9.146;2023-02-15T01:42:38;-1.50;99.90
7004;DHT22;3542;48.812;9.146;2023-02-15T01:45:05;-1.50;99.90
7004;DHT22;3542;48.812;9.146;2023-02-15T01:47:46;-1.50;99.90
7004;DHT22;3542;48.812;9.146;2023-02-15T01:55:22;-1.50;99.90
7004;DHT22;3542;48.812;9.146;2023-02-15T01:57:49;-1.50;99.90
7004;DHT22;3542;48.812;9.146;2023-02-15T03:30:55;-1.70;99.90
7004;DHT22;3542;48.812;9.146;2023-02-15T03:33:23;-1.70;99.90
7004;DHT22;3542;48.812;9.146;2023-02-15T03:35:59;-1.60;99.90
7004;DHT22;3542;48.812;9.146;2023-02-15T03:38:35;-1.60;99.90
7004;DHT22;3542;48.812;9.146;2023-02-15T03:41:02;-1.60;99.90
7004;DHT22;3542;48.812;9.146;2023-02-15T03:46:28;-1.50;99.90
7004;DHT22;3542;48.812;9.146;2023-02-15T03:49:32;-1.50;99.90
7004;DHT22;3542;48.812;9.146;2023-02-15T03:51:57;-1.50;99.90
7004;DHT22;3542;48.812;9.146;2023-02-15T03:54:28;-1.50;99.90
7004;DHT22;3542;48.812;9.146;2023-02-15T03:57:14;-1.50;99.90
7004;DHT22;3542;48.812;9.146;2023-02-15T04:00:00;-1.50;99.90
7004;DHT22;3542;48.812;9.146;2023-02-15T04:05:45;-1.40;99.90
7004;DHT22;3542;48.812;9.146;2023-02-15T04:08:11;-1.30;99.90
7004;DHT22;3542;48.812;9.146;2023-02-15T04:10:37;-1.30;99.90
7004;DHT22;3542;48.812;9.146;2023-02-15T04:13:31;-1.30;99.90
7004;DHT22;3542;48.812;9.146;2023-02-15T04:15:57;-1.20;99.90
7004;DHT22;3542;48.812;9.146;2023-02-15T04:18:37;-1.20;99.90
7004;DHT22;3542;48.812;9.146;2023-02-15T04:21:23;-1.20;99.90
7004;DHT22;3542;48.812;9.146;2023-02-15T04:24:07;-1.20;99.90
7004;DHT22;3542;48.812;9.146;2023-02-15T04:26:52;-1.20;99.90
7004;DHT22;3542;48.812;9.146;2023-02-15T04:29:19;-1.20;99.90
7004;DHT22;3542;48.812;9.146;2023-02-15T04:31:45;-1.20;99.90
7004;DHT22;3542;48.812;9.146;2023-02-15T04:34:11;-1.20;99.90
7004;DHT22;3542;48.812;9.146;2023-02-15T04:36:37;-1.10;99.90
7004;DHT22;3542;48.812;9.146;2023-02-15T04:39:03;-1.10;99.90
7004;DHT22;3542;48.812;9.146;2023-02-15T04:41:29;-1.20;99.90
7004;DHT22;3542;48.812;9.146;2023-02-15T04:43:54;-1.20;99.90
7004;DHT22;3542;48.812;9.146;2023-02-15T04:46:20;-1.20;99.90
7004;DHT22;3542;48.812;9.146;2023-02-15T04:48:45;-1.20;99.90
7004;DHT22;3542;48.812;9.146;2023-02-15T04:51:11;-1.20;99.90
7004;DHT22;3542;48.812;9.146;2023-02-15T04:53:36;-1.20;99.90
7004;DHT22;3542;48.812;9.146;2023-02-15T04:56:02;-1.20;99.90
7004;DHT22;3542;48.812;9.146;2023-02-15T04:58:28;-1.20;99.90
7004;DHT22;3542;48.812;9.146;2023-02-15T05:00:57;-1.20;99.90
7004;DHT22;3542;48.812;9.146;2023-02-15T05:03:23;-1.30;99.90
7004;DHT22;3542;48.812;9.146;2023-02-15T05:05:49;-1.30;99.90
7004;DHT22;3542;48.812;9.146;2023-02-15T05:08:14;-1.30;99.90
7004;DHT22;3542;48.812;9.146;2023-02-15T05:10:40;-1.20;99.90
7004;DHT22;3542;48.812;9.146;2023-02-15T05:13:06;-1.30;99.90
7004;DHT22;3542;48.812;9.146;2023-02-15T05:15:31;-1.30;99.90
7004;DHT22;3542;48.812;9.146;2023-02-15T05:17:57;-1.40;99.90
7004;DHT22;3542;48.812;9.146;2023-02-15T05:20:22;-1.40;99.90
7004;DHT22;3542;48.812;9.146;2023-02-15T05:22:48;-1.30;99.90
7004;DHT22;3542;48.812;9.146;2023-02-15T05:25:13;-1.40;99.90
7004;DHT22;3542;48.812;9.146;2023-02-15T05:27:59;-1.40;99.90
7004;DHT22;3542;48.812;9.146;2023-02-15T05:30:43;-1.40;99.90
7004;DHT22;3542;48.812;9.146;2023-02-15T05:33:09;-1.50;99.90
7004;DHT22;3542;48.812;9.146;2023-02-15T05:35:35;-1.50;99.90
7004;DHT22;3542;48.812;9.146;2023-02-15T05:38:00;-1.50;99.90
7004;DHT22;3542;48.812;9.146;2023-02-15T05:40:26;-1.50;99.90
7004;DHT22;3542;48.812;9.146;2023-02-15T05:42:51;-1.60;99.90
7004;DHT22;3542;48.812;9.146;2023-02-15T05:45:17;-1.60;99.90
7004;DHT22;3542;48.812;9.146;2023-02-15T05:47:43;-1.60;99.90
7004;DHT22;3542;48.812;9.146;2023-02-15T05:50:09;-1.60;99.90
7004;DHT22;3542;48.812;9.146;2023-02-15T05:52:35;-1.60;99.90
7004;DHT22;3542;48.812;9.146;2023-02-15T05:55:01;-1.50;99.90
7004;DHT22;3542;48.812;9.146;2023-02-15T05:57:28;-1.50;99.90
7004;DHT22;3542;48.812;9.146;2023-02-15T05:59:53;-1.50;99.90
7004;DHT22;3542;48.812;9.146;2023-02-15T06:02:19;-1.50;99.90
7004;DHT22;3542;48.812;9.146;2023-02-15T06:04:44;-1.50;99.90
7004;DHT22;3542;48.812;9.146;2023-02-15T06:07:10;-1.50;99.90
7004;DHT22;3542;48.812;9.146;2023-02-15T06:09:35;-1.50;99.90
7004;DHT22;3542;48.812;9.146;2023-02-15T06:12:01;-1.40;99.90
7004;DHT22;3542;48.812;9.146;2023-02-15T06:14:26;-1.40;99.90
7004;DHT22;3542;48.812;9.146;2023-02-15T06:16:52;-1.50;99.90
7004;DHT22;3542;48.812;9.146;2023-02-15T06:19:17;-1.50;99.90
7004;DHT22;3542;48.812;9.146;2023-02-15T06:21:43;-1.50;99.90
7004;DHT22;3542;48.812;9.146;2023-02-15T06:24:09;-1.50;99.90
7004;DHT22;3542;48.812;9.146;2023-02-15T06:26:35;-1.40;99.90
7004;DHT22;3542;48.812;9.146;2023-02-15T06:29:00;-1.40;99.90
7004;DHT22;3542;48.812;9.146;2023-02-15T06:31:26;-1.50;99.90
7004;DHT22;3542;48.812;9.146;2023-02-15T06:33:51;-1.60;99.90
7004;DHT22;3542;48.812;9.146;2023-02-15T06:36:17;-1.60;99.90
7004;DHT22;3542;48.812;9.146;2023-02-15T06:38:42;-1.60;99.90
7004;DHT22;3542;48.812;9.146;2023-02-15T06:41:08;-1.50;99.90
7004;DHT22;3542;48.812;9.146;2023-02-15T06:43:34;-1.50;99.90
7004;DHT22;3542;48.812;9.146;2023-02-15T06:46:00;-1.50;99.90
7004;DHT22;3542;48.812;9.146;2023-02-15T06:48:25;-1.60;99.90
7004;DHT22;3542;48.812;9.146;2023-02-15T06:50:51;-1.60;99.90
7004;DHT22;3542;48.812;9.146;2023-02-15T06:53:17;-1.60;99.90
7004;DHT22;3542;48.812;9.146;2023-02-15T06:55:42;-1.60;99.90
7004;DHT22;3542;48.812;9.146;2023-02-15T06:58:08;-1.60;99.90
7004;DHT22;3542;48.812;9.146;2023-02-15T07:00:33;-1.60;99.90
7004;DHT22;3542;48.812;9.146;2023-02-15T07:02:59;-1.60;99.90
7004;DHT22;3542;48.812;9.146;2023-02-15T07:05:25;-1.60;99.90
7004;DHT22;3542;48.812;9.146;2023-02-15T07:07:56;-1.50;99.90
7004;DHT22;3542;48.812;9.146;2023-02-15T07:10:22;-1.50;99.90
7004;DHT22;3542;48.812;9.146;2023-02-15T07:12:47;-1.50;99.90
7004;DHT22;3542;48.812;9.146;2023-02-15T07:15:15;-1.40;99.90
7004;DHT22;3542;48.812;9.146;2023-02-15T07:17:41;-1.40;99.90
7004;DHT22;3542;48.812;9.146;2023-02-15T07:20:10;-1.50;99.90
7004;DHT22;3542;48.812;9.146;2023-02-15T07:22:36;-1.40;99.90
7004;DHT22;3542;48.812;9.146;2023-02-15T07:25:03;-1.30;99.90
7004;DHT22;3542;48.812;9.146;2023-02-15T07:27:30;-1.20;99.90
7004;DHT22;3542;48.812;9.146;2023-02-15T07:29:55;-1.20;99.90
7004;DHT22;3542;48.812;9.146;2023-02-15T07:32:21;-1.10;99.90
7004;DHT22;3542;48.812;9.146;2023-02-15T07:34:46;-1.20;99.90
7004;DHT22;3542;48.812;9.146;2023-02-15T07:37:12;-1.20;99.90
7004;DHT22;3542;48.812;9.146;2023-02-15T07:39:37;-1.10;99.90
7004;DHT22;3542;48.812;9.146;2023-02-15T07:42:03;-1.10;99.90
7004;DHT22;3542;48.812;9.146;2023-02-15T07:44:28;-0.90;99.90
7004;DHT22;3542;48.812;9.146;2023-02-15T07:46:54;-0.90;99.90
7004;DHT22;3542;48.812;9.146;2023-02-15T07:49:19;-0.80;99.90
7004;DHT22;3542;48.812;9.146;2023-02-15T07:51:45;-0.70;99.90
7004;DHT22;3542;48.812;9.146;2023-02-15T07:54:11;-0.70;99.90
7004;DHT22;3542;48.812;9.146;2023-02-15T07:56:36;-0.70;99.90
7004;DHT22;3542;48.812;9.146;2023-02-15T07:59:02;-0.70;99.90
7004;DHT22;3542;48.812;9.146;2023-02-15T08:01:33;-0.60;99.90
7004;DHT22;3542;48.812;9.146;2023-02-15T08:03:59;-0.50;99.90
7004;DHT22;3542;48.812;9.146;2023-02-15T08:06:27;-0.50;99.90
7004;DHT22;3542;48.812;9.146;2023-02-15T08:08:53;-0.70;99.90
7004;DHT22;3542;48.812;9.146;2023-02-15T08:11:20;-0.60;99.90
7004;DHT22;3542;48.812;9.146;2023-02-15T08:16:39;-0.40;99.90
7004;DHT22;3542;48.812;9.146;2023-02-15T08:21:35;-0.10;99.90
7004;DHT22;3542;48.812;9.146;2023-02-15T08:24:01;-0.10;99.90
7004;DHT22;3542;48.812;9.146;2023-02-15T08:26:28;0.00;99.90
7004;DHT22;3542;48.812;9.146;2023-02-15T08:28:54;0.20;99.90
7004;DHT22;3542;48.812;9.146;2023-02-15T08:31:20;0.20;99.90
7004;DHT22;3542;48.812;9.146;2023-02-15T08:33:47;0.30;99.90
7004;DHT22;3542;48.812;9.146;2023-02-15T08:36:17;0.40;99.90
7004;DHT22;3542;48.812;9.146;2023-02-15T08:38:44;0.50;99.90
7004;DHT22;3542;48.812;9.146;2023-02-15T08:41:21;0.50;99.90
7004;DHT22;3542;48.812;9.146;2023-02-15T08:43:52;0.50;99.90
7004;DHT22;3542;48.812;9.146;2023-02-15T08:46:19;0.50;99.90
7004;DHT22;3542;48.812;9.146;2023-02-15T08:48:45;0.60;99.90
7004;DHT22;3542;48.812;9.146;2023-02-15T08:51:17;0.60;99.90
7004;DHT22;3542;48.812;9.146;2023-02-15T08:53:45;0.80;99.90
7004;DHT22;3542;48.812;9.146;2023-02-15T08:56:14;0.80;99.90
7004;DHT22;3542;48.812;9.146;2023-02-15T08:58:39;0.80;99.90
7004;DHT22;3542;48.812;9.146;2023-02-15T09:01:13;0.60;99.90
7004;DHT22;3542;48.812;9.146;2023-02-15T09:03:39;0.60;99.90
7004;DHT22;3542;48.812;9.146;2023-02-15T09:06:05;0.60;99.90
7004;DHT22;3542;48.812;9.146;2023-02-15T09:08:31;0.80;99.90
7004;DHT22;3542;48.812;9.146;2023-02-15T09:11:18;0.80;99.90
7004;DHT22;3542;48.812;9.146;2023-02-15T09:13:55;0.80;99.90
7004;DHT22;3542;48.812;9.146;2023-02-15T09:16:22;0.90;99.90
7004;DHT22;3542;48.812;9.146;2023-02-15T09:18:48;0.90;99.90
7004;DHT22;3542;48.812;9.146;2023-02-15T09:21:15;1.10;99.90
7004;DHT22;3542;48.812;9.146;2023-02-15T09:23:42;1.20;99.90
7004;DHT22;3542;48.812;9.146;2023-02-15T09:26:14;1.30;99.90
7004;DHT22;3542;48.812;9.146;2023-02-15T09:28:40;1.50;99.90
7004;DHT22;3542;48.812;9.146;2023-02-15T09:31:20;1.80;99.90
7004;DHT22;3542;48.812;9.146;2023-02-15T09:33:47;2.00;99.90
7004;DHT22;3542;48.812;9.146;2023-02-15T09:36:19;2.30;99.90
7004;DHT22;3542;48.812;9.146;2023-02-15T09:38:45;2.40;99.90
7004;DHT22;3542;48.812;9.146;2023-02-15T09:43:53;3.00;99.90
7004;DHT22;3542;48.812;9.146;2023-02-15T09:49:09;3.80;99.90
7004;DHT22;3542;48.812;9.146;2023-02-15T09:51:38;4.30;99.90
7004;DHT22;3542;48.812;9.146;2023-02-15T10:03:07;6.30;99.90
7004;DHT22;3542;48.812;9.146;2023-02-15T10:05:30;6.50;99.90
7004;DHT22;3542;48.812;9.146;2023-02-15T10:08:15;6.80;99.90
7004;DHT22;3542;48.812;9.146;2023-02-15T10:10:57;7.50;99.90
7004;DHT22;3542;48.812;9.146;2023-02-15T10:14:40;7.60;99.90
7004;DHT22;3542;48.812;9.146;2023-02-15T10:17:02;7.00;99.90
7004;DHT22;3542;48.812;9.146;2023-02-15T10:25:52;8.30;99.90
7004;DHT22;3542;48.812;9.146;2023-02-15T10:28:26;8.80;99.90
7004;DHT22;3542;48.812;9.146;2023-02-15T10:31:02;8.90;99.90
7004;DHT22;3542;48.812;9.146;2023-02-15T10:33:41;9.20;99.90
7004;DHT22;3542;48.812;9.146;2023-02-15T10:39:19;9.00;99.90
7004;DHT22;3542;48.812;9.146;2023-02-15T10:44:55;9.10;99.90
7004;DHT22;3542;48.812;9.146;2023-02-15T10:50:25;9.40;99.90
7004;DHT22;3542;48.812;9.146;2023-02-15T11:06:06;10.40;99.90
7004;DHT22;3542;48.812;9.146;2023-02-15T11:08:40;10.50;99.90
7004;DHT22;3542;48.812;9.146;2023-02-15T11:11:09;10.90;99.90
7004;DHT22;3542;48.812;9.146;2023-02-15T11:13:44;11.30;99.90
7004;DHT22;3542;48.812;9.146;2023-02-15T11:16:23;11.50;99.90
7004;DHT22;3542;48.812;9.146;2023-02-15T11:18:54;11.40;99.90
7004;DHT22;3542;48.812;9.146;2023-02-15T11:21:27;11.50;99.90
7004;DHT22;3542;48.812;9.146;2023-02-15T11:23:54;11.50;99.90
7004;DHT22;3542;48.812;9.146;2023-02-15T11:28:57;11.60;99.90
7004;DHT22;3542;48.812;9.146;2023-02-15T11:31:26;11.40;99.90
7004;DHT22;3542;48.812;9.146;2023-02-15T11:34:00;11.30;99.90
7004;DHT22;3542;48.812;9.146;2023-02-15T11:36:37;11.30;99.90
7004;DHT22;3542;48.812;9.146;2023-02-15T11:39:12;11.30;99.90
7004;DHT22;3542;48.812;9.146;2023-02-15T11:41:44;11.20;99.90
7004;DHT22;3542;48.812;9.146;2023-02-15T11:44:14;11.20;99.90
7004;DHT22;3542;48.812;9.146;2023-02-15T11:46:41;11.00;99.90
7004;DHT22;3542;48.812;9.146;2023-02-15T11:49:31;10.90;99.90
7004;DHT22;3542;48.812;9.146;2023-02-15T11:51:59;10.70;99.90
7004;DHT22;3542;48.812;9.146;2023-02-15T11:54:29;10.70;99.90
7004;DHT22;3542;48.812;9.146;2023-02-15T11:57:14;10.80;99.90
7004;DHT22;3542;48.812;9.146;2023-02-15T11:59:44;11.00;99.90
7004;DHT22;3542;48.812;9.146;2023-02-15T12:02:20;11.00;99.90
7004;DHT22;3542;48.812;9.146;2023-02-15T12:04:51;11.10;99.90
7004;DHT22;3542;48.812;9.146;2023-02-15T12:07:25;11.20;99.90
7004;DHT22;3542;48.812;9.146;2023-02-15T12:10:10;11.20;99.90
7004;DHT22;3542;48.812;9.146;2023-02-15T12:12:39;11.30;99.90
7004;DHT22;3542;48.812;9.146;2023-02-15T12:15:07;11.40;99.90
7004;DHT22;3542;48.812;9.146;2023-02-15T12:17:38;11.40;99.90
7004;DHT22;3542;48.812;9.146;2023-02-15T12:20:29;11.40;99.90
7004;DHT22;3542;48.812;9.146;2023-02-15T12:23:12;11.20;99.90
7004;DHT22;3542;48.812;9.146;2023-02-15T12:25:49;11.20;99.90
7004;DHT22;3542;48.812;9.146;2023-02-15T12:28:30;11.10;99.90
7004;DHT22;3542;48.812;9.146;2023-02-15T12:30:57;11.00;99.90
7004;DHT22;3542;48.812;9.146;2023-02-15T12:33:34;11.10;99.90
7004;DHT22;3542;48.812;9.146;2023-02-15T12:36:10;11.10;99.90
7004;DHT22;3542;48.812;9.146;2023-02-15T12:38:36;11.20;99.90
7004;DHT22;3542;48.812;9.146;2023-02-15T12:41:04;11.00;99.90
7004;DHT22;3542;48.812;9.146;2023-02-15T12:43:38;11.00;99.90
7004;DHT22;3542;48.812;9.146;2023-02-15T12:46:19;10.90;99.90
7004;DHT22;3542;48.812;9.146;2023-02-15T12:48:45;11.00;99.90
7004;DHT22;3542;48.812;9.146;2023-02-15T12:51:14;10.90;99.90
7004;DHT22;3542;48.812;9.146;2023-02-15T12:53:40;10.80;99.90
7004;DHT22;3542;48.812;9.146;2023-02-15T12:56:08;10.70;99.90
7004;DHT22;3542;48.812;9.146;2023-02-15T12:58:41;10.80;99.90
7004;DHT22;3542;48.812;9.146;2023-02-15T13:01:14;10.80;99.90
7004;DHT22;3542;48.812;9.146;2023-02-15T13:04:02;10.80;99.90
7004;DHT22;3542;48.812;9.146;2023-02-15T13:06:31;10.80;99.90
7004;DHT22;3542;48.812;9.146;2023-02-15T13:09:05;10.80;99.90
7004;DHT22;3542;48.812;9.146;2023-02-15T13:11:31;10.70;99.90
7004;DHT22;3542;48.812;9.146;2023-02-15T13:14:02;10.70;99.90
7004;DHT22;3542;48.812;9.146;2023-02-15T13:16:37;10.80;99.90
7004;DHT22;3542;48.812;9.146;2023-02-15T13:19:10;10.80;99.90
7004;DHT22;3542;48.812;9.146;2023-02-15T13:21:40;10.60;99.90
7004;DHT22;3542;48.812;9.146;2023-02-15T13:24:22;10.60;99.90
7004;DHT22;3542;48.812;9.146;2023-02-15T13:26:49;10.50;99.90
7004;DHT22;3542;48.812;9.146;2023-02-15T13:31:49;10.10;99.90
7004;DHT22;3542;48.812;9.146;2023-02-15T13:34:20;10.10;99.90
7004;DHT22;3542;48.812;9.146;2023-02-15T13:37:08;10.20;99.90
7004;DHT22;3542;48.812;9.146;2023-02-15T13:39:42;10.20;99.90
7004;DHT22;3542;48.812;9.146;2023-02-15T13:44:54;10.20;99.90
7004;DHT22;3542;48.812;9.146;2023-02-15T13:50:15;10.20;99.90
7004;DHT22;3542;48.812;9.146;2023-02-15T13:53:02;10.20;99.90
7004;DHT22;3542;48.812;9.146;2023-02-15T14:17:21;9.80;99.90
7004;DHT22;3542;48.812;9.146;2023-02-15T14:19:53;9.80;99.90
7004;DHT22;3542;48.812;9.146;2023-02-15T14:22:40;9.80;99.90
7004;DHT22;3542;48.812;9.146;2023-02-15T14:30:37;10.00;99.90
7004;DHT22;3542;48.812;9.146;2023-02-15T14:33:29;10.10;99.90
7004;DHT22;3542;48.812;9.146;2023-02-15T14:35:56;10.00;99.90
7004;DHT22;3542;48.812;9.146;2023-02-15T14:38:44;10.00;99.90
7004;DHT22;3542;48.812;9.146;2023-02-15T14:41:31;10.10;99.90
7004;DHT22;3542;48.812;9.146;2023-02-15T14:49:26;10.10;99.90
7004;DHT22;3542;48.812;9.146;2023-02-15T14:52:01;10.20;99.90
7004;DHT22;3542;48.812;9.146;2023-02-15T15:04:40;10.20;99.90
7004;DHT22;3542;48.812;9.146;2023-02-15T15:07:24;10.30;99.90
7004;DHT22;3542;48.812;9.146;2023-02-15T15:12:58;10.20;99.90
7004;DHT22;3542;48.812;9.146;2023-02-15T15:17:55;10.20;99.90
7004;DHT22;3542;48.812;9.146;2023-02-15T15:20:43;10.10;99.90
7004;DHT22;3542;48.812;9.146;2023-02-15T15:25:43;10.10;99.90
7004;DHT22;3542;48.812;9.146;2023-02-15T15:42:19;10.00;99.90
7004;DHT22;3542;48.812;9.146;2023-02-15T15:50:58;9.80;99.90
7004;DHT22;3542;48.812;9.146;2023-02-15T15:53:26;9.70;99.90
7004;DHT22;3542;48.812;9.146;2023-02-15T15:55:59;9.60;99.90
7004;DHT22;3542;48.812;9.146;2023-02-15T15:58:26;9.60;99.90
7004;DHT22;3542;48.812;9.146;2023-02-15T16:00:55;9.50;99.90
7004;DHT22;3542;48.812;9.146;2023-02-15T16:03:27;9.40;99.90
7004;DHT22;3542;48.812;9.146;2023-02-15T16:05:53;9.30;99.90
7004;DHT22;3542;48.812;9.146;2023-02-15T16:08:33;9.20;99.90
7004;DHT22;3542;48.812;9.146;2023-02-15T16:11:35;9.10;99.90
7004;DHT22;3542;48.812;9.146;2023-02-15T16:13:54;8.90;99.90
7004;DHT22;3542;48.812;9.146;2023-02-15T16:16:26;8.80;99.90
7004;DHT22;3542;48.812;9.146;2023-02-15T16:18:54;8.60;99.90
7004;DHT22;3542;48.812;9.146;2023-02-15T16:21:23;8.40;99.90
7004;DHT22;3542;48.812;9.146;2023-02-15T16:26:44;8.00;99.90
7004;DHT22;3542;48.812;9.146;2023-02-15T16:29:23;7.80;99.90
7004;DHT22;3542;48.812;9.146;2023-02-15T16:37:22;7.30;99.90
7004;DHT22;3542;48.812;9.146;2023-02-15T16:39:49;7.10;99.90
7004;DHT22;3542;48.812;9.146;2023-02-15T16:42:16;7.00;99.90
7004;DHT22;3542;48.812;9.146;2023-02-15T16:44:44;6.80;99.90
7004;DHT22;3542;48.812;9.146;2023-02-15T16:47:25;6.70;99.90
7004;DHT22;3542;48.812;9.146;2023-02-15T16:49:52;6.60;99.90
7004;DHT22;3542;48.812;9.146;2023-02-15T16:52:24;6.50;99.90
7004;DHT22;3542;48.812;9.146;2023-02-15T16:55:02;6.30;99.90
7004;DHT22;3542;48.812;9.146;2023-02-15T16:57:33;6.20;99.90
7004;DHT22;3542;48.812;9.146;2023-02-15T17:00:14;6.10;99.90
7004;DHT22;3542;48.812;9.146;2023-02-15T17:03:37;5.90;99.90
7004;DHT22;3542;48.812;9.146;2023-02-15T17:05:45;5.80;99.90
7004;DHT22;3542;48.812;9.146;2023-02-15T17:08:24;5.70;99.90
7004;DHT22;3542;48.812;9.146;2023-02-15T17:13:26;5.50;99.90
7004;DHT22;3542;48.812;9.146;2023-02-15T17:18:23;5.20;99.90
7004;DHT22;3542;48.812;9.146;2023-02-15T17:20:52;5.10;99.90
7004;DHT22;3542;48.812;9.146;2023-02-15T17:25:51;4.90;99.90
7004;DHT22;3542;48.812;9.146;2023-02-15T17:28:30;4.80;99.90
7004;DHT22;3542;48.812;9.146;2023-02-15T17:30:57;4.70;99.90
7004;DHT22;3542;48.812;9.146;2023-02-15T17:33:36;4.60;99.90
7004;DHT22;3542;48.812;9.146;2023-02-15T17:36:14;4.50;99.90
7004;DHT22;3542;48.812;9.146;2023-02-15T17:39:04;4.50;99.90
7004;DHT22;3542;48.812;9.146;2023-02-15T17:41:34;4.40;99.90
7004;DHT22;3542;48.812;9.146;2023-02-15T17:44:01;4.30;99.90
7004;DHT22;3542;48.812;9.146;2023-02-15T17:46:32;4.20;99.90
7004;DHT22;3542;48.812;9.146;2023-02-15T17:49:00;4.20;99.90
7004;DHT22;3542;48.812;9.146;2023-02-15T17:51:26;4.10;99.90
7004;DHT22;3542;48.812;9.146;2023-02-15T17:53:52;4.00;99.90
7004;DHT22;3542;48.812;9.146;2023-02-15T17:56:37;4.00;99.90
7004;DHT22;3542;48.812;9.146;2023-02-15T17:59:03;3.90;99.90
7004;DHT22;3542;48.812;9.146;2023-02-15T18:01:36;3.80;99.90
7004;DHT22;3542;48.812;9.146;2023-02-15T18:04:22;3.80;99.90
7004;DHT22;3542;48.812;9.146;2023-02-15T18:07:08;3.70;99.90
7004;DHT22;3542;48.812;9.146;2023-02-15T18:09:53;3.70;99.90
7004;DHT22;3542;48.812;9.146;2023-02-15T18:12:37;3.60;99.90
7004;DHT22;3542;48.812;9.146;2023-02-15T18:15:05;3.50;99.90
7004;DHT22;3542;48.812;9.146;2023-02-15T18:17:43;3.40;99.90
7004;DHT22;3542;48.812;9.146;2023-02-15T18:22:43;3.20;99.90
7004;DHT22;3542;48.812;9.146;2023-02-15T18:25:14;3.20;99.90
7004;DHT22;3542;48.812;9.146;2023-02-15T18:27:39;3.20;99.90
7004;DHT22;3542;48.812;9.146;2023-02-15T18:30:06;3.10;99.90
7004;DHT22;3542;48.812;9.146;2023-02-15T18:32:34;3.00;99.90
7004;DHT22;3542;48.812;9.146;2023-02-15T18:35:01;3.00;99.90
7004;DHT22;3542;48.812;9.146;2023-02-15T18:37:30;2.90;99.90
7004;DHT22;3542;48.812;9.146;2023-02-15T18:39:57;2.80;99.90
7004;DHT22;3542;48.812;9.146;2023-02-15T18:42:27;2.80;99.90
7004;DHT22;3542;48.812;9.146;2023-02-15T18:44:56;2.70;99.90
7004;DHT22;3542;48.812;9.146;2023-02-15T18:47:22;2.70;99.90
7004;DHT22;3542;48.812;9.146;2023-02-15T18:49:47;2.70;99.90
7004;DHT22;3542;48.812;9.146;2023-02-15T18:52:20;2.60;99.90
7004;DHT22;3542;48.812;9.146;2023-02-15T18:54:47;2.50;99.90
7004;DHT22;3542;48.812;9.146;2023-02-15T18:57:15;2.50;99.90
7004;DHT22;3542;48.812;9.146;2023-02-15T18:59:41;2.50;99.90
7004;DHT22;3542;48.812;9.146;2023-02-15T19:02:17;2.40;99.90
7004;DHT22;3542;48.812;9.146;2023-02-15T19:04:44;2.40;99.90
7004;DHT22;3542;48.812;9.146;2023-02-15T19:07:24;2.30;99.90
7004;DHT22;3542;48.812;9.146;2023-02-15T19:09:56;2.30;99.90
7004;DHT22;3542;48.812;9.146;2023-02-15T19:12:23;2.20;99.90
7004;DHT22;3542;48.812;9.146;2023-02-15T19:14:48;2.20;99.90
7004;DHT22;3542;48.812;9.146;2023-02-15T19:17:19;2.10;99.90
7004;DHT22;3542;48.812;9.146;2023-02-15T19:19:45;2.10;99.90
7004;DHT22;3542;48.812;9.146;2023-02-15T19:22:18;2.00;99.90
7004;DHT22;3542;48.812;9.146;2023-02-15T19:24:46;2.00;99.90
7004;DHT22;3542;48.812;9.146;2023-02-15T19:29:46;1.90;99.90
7004;DHT22;3542;48.812;9.146;2023-02-15T19:32:12;1.90;99.90
7004;DHT22;3542;48.812;9.146;2023-02-15T19:34:38;1.80;99.90
7004;DHT22;3542;48.812;9.146;2023-02-15T19:37:05;1.80;99.90
7004;DHT22;3542;48.812;9.146;2023-02-15T19:39:37;1.80;99.90
7004;DHT22;3542;48.812;9.146;2023-02-15T19:42:03;1.80;99.90
7004;DHT22;3542;48.812;9.146;2023-02-15T19:44:29;1.70;99.90
7004;DHT22;3542;48.812;9.146;2023-02-15T19:46:55;1.70;99.90
7004;DHT22;3542;48.812;9.146;2023-02-15T19:49:20;1.70;99.90
7004;DHT22;3542;48.812;9.146;2023-02-15T19:51:46;1.60;99.90
7004;DHT22;3542;48.812;9.146;2023-02-15T19:54:28;1.50;99.90
7004;DHT22;3542;48.812;9.146;2023-02-15T19:56:55;1.50;99.90
7004;DHT22;3542;48.812;9.146;2023-02-15T19:59:24;1.50;99.90
7004;DHT22;3542;48.812;9.146;2023-02-15T20:01:50;1.40;99.90
7004;DHT22;3542;48.812;9.146;2023-02-15T20:04:16;1.40;99.90
7004;DHT22;3542;48.812;9.146;2023-02-15T20:06:42;1.40;99.90
7004;DHT22;3542;48.812;9.146;2023-02-15T20:09:20;1.30;99.90
7004;DHT22;3542;48.812;9.146;2023-02-15T20:11:49;1.30;99.90
7004;DHT22;3542;48.812;9.146;2023-02-15T20:14:14;1.30;99.90
7004;DHT22;3542;48.812;9.146;2023-02-15T20:16:40;1.30;99.90
7004;DHT22;3542;48.812;9.146;2023-02-15T20:19:05;1.20;99.90
7004;DHT22;3542;48.812;9.146;2023-02-15T20:21:31;1.20;99.90
7004;DHT22;3542;48.812;9.146;2023-02-15T20:23:57;1.20;99.90
7004;DHT22;3542;48.812;9.146;2023-02-15T20:26:24;1.10;99.90
7004;DHT22;3542;48.812;9.146;2023-02-15T20:28:54;1.10;99.90
7004;DHT22;3542;48.812;9.146;2023-02-15T20:31:19;1.00;99.90
7004;DHT22;3542;48.812;9.146;2023-02-15T20:33:48;1.00;99.90
7004;DHT22;3542;48.812;9.146;2023-02-15T20:36:15;1.00;99.90
7004;DHT22;3542;48.812;9.146;2023-02-15T20:38:42;1.00;99.90